sensor_id;sensor_type;location;lat;lon;timestamp;pressure;altitude;pressure_sealevel;temperature;humidity
6829;BME280;17930;48.592;8.868;2023-06-14T00:00:06;96282.81;;;13.48;100.00
6829;BME280;17930;48.592;8.868;2023-06-14T00:02:33;96285.41;;;13.48;100.00
6829;BME280;17930;48.592;8.868;2023-06-14T00:04:59;96285.31;;;13.53;100.00
6829;BME280;17930;48.592;8.868;2023-06-14T00:07:35;96288.38;;;13.55;100.00
6829;BME280;17930;48.592;8.868;2023-06-14T00:10:03;96282.63;;;13.45;100.00
6829;BME280;17930;48.592;8.868;2023-06-14T00:12:30;96280.47;;;13.47;100.00
6829;BME280;17930;48.592;8.868;2023-06-14T00:14:57;96283.91;;;13.26;100.00
6829;BME280;17930;48.592;8.868;2023-06-14T00:17:23;96284.16;;;13.16;100.00
6829;BME280;17930;48.592;8.868;2023-06-14T00:19:55;96280.56;;;13.12;100.00
6829;BME280;17930;48.592;8.868;2023-06-14T00:22:22;96280.34;;;13.22;100.00
6829;BME280;17930;48.592;8.868;2023-06-14T00:24:51;96280.88;;;13.10;100.00
6829;BME280;17930;48.592;8.868;2023-06-14T00:27:18;96276.75;;;13.18;100.00
6829;BME280;17930;48.592;8.868;2023-06-14T00:29:44;96290.38;;;13.06;100.00
6829;BME280;17930;48.592;8.868;2023-06-14T00:32:11;96276.59;;;13.14;100.00
6829;BME280;17930;48.592;8.868;2023-06-14T00:34:38;96279.00;;;13.02;100.00
6829;BME280;17930;48.592;8.868;2023-06-14T00:37:04;96276.66;;;13.01;100.00
6829;BME280;17930;48.592;8.868;2023-06-14T00:39:32;96280.72;;;13.07;100.00
6829;BME280;17930;48.592;8.868;2023-06-14T00:41:59;96279.56;;;12.99;100.00
6829;BME280;17930;48.592;8.868;2023-06-14T00:44:26;96278.19;;;13.02;100.00
6829;BME280;17930;48.592;8.868;2023-06-14T00:46:53;96289.56;;;13.19;100.00
6829;BME280;17930;48.592;8.868;2023-06-14T00:49:20;96277.72;;;13.22;100.00
6829;BME280;17930;48.592;8.868;2023-06-14T00:51:47;96281.31;;;13.04;100.00
6829;BME280;17930;48.592;8.868;2023-06-14T00:54:14;96287.03;;;12.84;100.00
6829;BME280;17930;48.592;8.868;2023-06-14T00:56:41;96286.66;;;12.64;100.00
6829;BME280;17930;48.592;8.868;2023-06-14T00:59:11;96279.44;;;12.47;100.00
6829;BME280;17930;48.592;8.868;2023-06-14T01:01:38;96280.88;;;12.53;100.00
6829;BME280;17930;48.592;8.868;2023-06-14T01:04:05;96288.44;;;12.41;100.00
6829;BME280;17930;48.592;8.868;2023-06-14T01:06:36;96289.16;;;12.33;100.00
6829;BME280;17930;48.592;8.868;2023-06-14T01:09:15;96285.94;;;12.23;100.00
6829;BME280;17930;48.592;8.868;2023-06-14T01:11:48;96284.59;;;12.26;100.00
6829;BME280;17930;48.592;8.868;2023-06-14T01:14:19;96281.81;;;12.22;100.00
6829;BME280;17930;48.592;8.868;2023-06-14T01:16:47;96283.84;;;12.25;100.00
6829;BME280;17930;48.592;8.868;2023-06-14T01:19:18;96289.06;;;12.25;100.00
6829;BME280;17930;48.592;8.868;2023-06-14T01:21:48;96278.00;;;12.28;100.00
6829;BME280;17930;48.592;8.868;2023-06-14T01:24:17;96291.84;;;12.28;100.00
6829;BME280;17930;48.592;8.868;2023-06-14T01:26:45;96286.16;;;12.27;100.00
6829;BME280;17930;48.592;8.868;2023-06-14T01:29:17;96289.66;;;12.22;100.00
6829;BME280;17930;48.592;8.868;2023-06-14T01:31:45;96286.38;;;12.17;100.00
6829;BME280;17930;48.592;8.868;2023-06-14T01:34:12;96283.94;;;12.20;100.00
6829;BME280;17930;48.592;8.868;2023-06-14T01:36:41;96283.25;;;12.15;100.00
6829;BME280;17930;48.592;8.868;2023-06-14T01:39:08;96281.00;;;12.22;100.00
6829;BME280;17930;48.592;8.868;2023-06-14T01:41:38;96290.44;;;12.09;100.00
6829;BME280;17930;48.592;8.868;2023-06-14T01:44:06;96291.22;;;12.10;100.00
6829;BME280;17930;48.592;8.868;2023-06-14T01:46:33;96287.16;;;12.04;100.00
6829;BME280;17930;48.592;8.868;2023-06-14T01:48:59;96291.28;;;12.05;100.00
6829;BME280;17930;48.592;8.868;2023-06-14T01:51:26;96282.91;;;12.08;100.00
6829;BME280;17930;48.592;8.868;2023-06-14T01:53:53;96287.72;;;12.01;100.00
6829;BME280;17930;48.592;8.868;2023-06-14T01:56:20;96289.47;;;12.05;100.00
6829;BME280;17930;48.592;8.868;2023-06-14T01:58:48;96292.66;;;11.89;100.00
6829;BME280;17930;48.592;8.868;2023-06-14T02:01:15;96289.56;;;11.87;100.00
6829;BME280;17930;48.592;8.868;2023-06-14T02:03:42;96282.31;;;11.97;100.00
6829;BME280;17930;48.592;8.868;2023-06-14T02:06:10;96286.75;;;11.97;100.00
6829;BME280;17930;48.592;8.868;2023-06-14T02:08:37;96283.84;;;11.98;100.00
6829;BME280;17930;48.592;8.868;2023-06-14T02:11:04;96286.84;;;11.92;100.00
6829;BME280;17930;48.592;8.868;2023-06-14T02:13:31;96284.22;;;11.92;100.00
6829;BME280;17930;48.592;8.868;2023-06-14T02:15:59;96292.19;;;11.87;100.00
6829;BME280;17930;48.592;8.868;2023-06-14T02:18:25;96293.16;;;11.91;100.00
6829;BME280;17930;48.592;8.868;2023-06-14T02:20:52;96297.41;;;11.87;100.00
6829;BME280;17930;48.592;8.868;2023-06-14T02:23:19;96299.06;;;11.70;100.00
6829;BME280;17930;48.592;8.868;2023-06-14T02:25:46;96306.03;;;11.42;100.00
6829;BME280;17930;48.592;8.868;2023-06-14T02:28:12;96303.09;;;11.30;100.00
6829;BME280;17930;48.592;8.868;2023-06-14T02:30:39;96297.88;;;11.30;100.00
6829;BME280;17930;48.592;8.868;2023-06-14T02:33:07;96296.16;;;11.39;100.00
6829;BME280;17930;48.592;8.868;2023-06-14T02:35:37;96289.72;;;11.50;100.00
6829;BME280;17930;48.592;8.868;2023-06-14T02:38:04;96292.34;;;11.50;100.00
6829;BME280;17930;48.592;8.868;2023-06-14T02:40:30;96290.84;;;11.44;100.00
6829;BME280;17930;48.592;8.868;2023-06-14T02:42:57;96295.34;;;11.57;100.00
6829;BME280;17930;48.592;8.868;2023-06-14T02:45:24;96292.34;;;11.50;100.00
6829;BME280;17930;48.592;8.868;2023-06-14T02:47:50;96295.44;;;11.52;100.00
6829;BME280;17930;48.592;8.868;2023-06-14T02:50:19;96294.22;;;11.31;100.00
6829;BME280;17930;48.592;8.868;2023-06-14T02:52:47;96295.78;;;11.14;100.00
6829;BME280;17930;48.592;8.868;2023-06-14T02:55:13;96298.63;;;11.18;100.00
6829;BME280;17930;48.592;8.868;2023-06-14T02:57:40;96299.56;;;11.08;100.00
6829;BME280;17930;48.592;8.868;2023-06-14T03:00:08;96293.16;;;11.01;100.00
6829;BME280;17930;48.592;8.868;2023-06-14T03:02:37;96295.25;;;10.99;100.00
6829;BME280;17930;48.592;8.868;2023-06-14T03:05:05;96292.59;;;11.04;100.00
6829;BME280;17930;48.592;8.868;2023-06-14T03:07:34;96286.06;;;11.20;100.00
6829;BME280;17930;48.592;8.868;2023-06-14T03:10:00;96297.00;;;11.22;100.00
6829;BME280;17930;48.592;8.868;2023-06-14T03:12:28;96290.88;;;11.13;100.00
6829;BME280;17930;48.592;8.868;2023-06-14T03:14:56;96301.59;;;11.11;100.00
6829;BME280;17930;48.592;8.868;2023-06-14T03:17:26;96303.66;;;10.96;100.00
6829;BME280;17930;48.592;8.868;2023-06-14T03:19:55;96310.16;;;10.98;100.00
6829;BME280;17930;48.592;8.868;2023-06-14T03:22:22;96301.47;;;11.03;100.00
6829;BME280;17930;48.592;8.868;2023-06-14T03:24:52;96311.13;;;11.02;100.00
6829;BME280;17930;48.592;8.868;2023-06-14T03:27:19;96310.84;;;11.04;100.00
6829;BME280;17930;48.592;8.868;2023-06-14T03:29:46;96317.75;;;11.13;100.00
6829;BME280;17930;48.592;8.868;2023-06-14T03:32:12;96324.09;;;11.07;100.00
6829;BME280;17930;48.592;8.868;2023-06-14T03:34:39;96319.81;;;10.98;100.00
6829;BME280;17930;48.592;8.868;2023-06-14T03:37:06;96328.09;;;10.86;100.00
6829;BME280;17930;48.592;8.868;2023-06-14T03:39:33;96323.50;;;10.78;100.00
6829;BME280;17930;48.592;8.868;2023-06-14T03:42:01;96321.59;;;10.84;100.00
6829;BME280;17930;48.592;8.868;2023-06-14T03:44:28;96327.28;;;10.86;100.00
6829;BME280;17930;48.592;8.868;2023-06-14T03:46:54;96327.94;;;10.78;100.00
6829;BME280;17930;48.592;8.868;2023-06-14T03:49:21;96335.25;;;10.76;100.00
6829;BME280;17930;48.592;8.868;2023-06-14T03:51:48;96338.38;;;10.78;100.00
6829;BME280;17930;48.592;8.868;2023-06-14T03:54:16;96343.66;;;10.73;100.00
6829;BME280;17930;48.592;8.868;2023-06-14T03:56:43;96347.47;;;10.62;100.00
6829;BME280;17930;48.592;8.868;2023-06-14T03:59:12;96344.91;;;10.57;100.00
6829;BME280;17930;48.592;8.868;2023-06-14T04:01:39;96350.69;;;10.54;100.00
6829;BME280;17930;48.592;8.868;2023-06-14T04:04:12;96357.25;;;10.70;100.00
6829;BME280;17930;48.592;8.868;2023-06-14T04:06:41;96358.09;;;10.66;100.00
6829;BME280;17930;48.592;8.868;2023-06-14T04:09:08;96347.81;;;10.56;100.00
6829;BME280;17930;48.592;8.868;2023-06-14T04:11:35;96356.41;;;10.56;100.00
6829;BME280;17930;48.592;8.868;2023-06-14T04:14:02;96345.91;;;10.61;100.00
6829;BME280;17930;48.592;8.868;2023-06-14T04:16:30;96358.16;;;10.79;100.00
6829;BME280;17930;48.592;8.868;2023-06-14T04:18:56;96358.41;;;10.82;100.00
6829;BME280;17930;48.592;8.868;2023-06-14T04:21:23;96368.19;;;10.72;100.00
6829;BME280;17930;48.592;8.868;2023-06-14T04:23:53;96361.06;;;10.77;100.00
6829;BME280;17930;48.592;8.868;2023-06-14T04:26:21;96368.56;;;10.84;100.00
6829;BME280;17930;48.592;8.868;2023-06-14T04:28:49;96371.50;;;10.96;100.00
6829;BME280;17930;48.592;8.868;2023-06-14T04:31:17;96375.19;;;11.13;100.00
6829;BME280;17930;48.592;8.868;2023-06-14T04:33:45;96374.09;;;11.14;100.00
6829;BME280;17930;48.592;8.868;2023-06-14T04:36:13;96374.38;;;11.13;100.00
6829;BME280;17930;48.592;8.868;2023-06-14T04:38:43;96379.53;;;11.18;100.00
6829;BME280;17930;48.592;8.868;2023-06-14T04:41:10;96380.16;;;11.28;100.00
6829;BME280;17930;48.592;8.868;2023-06-14T04:43:37;96372.88;;;11.43;100.00
6829;BME280;17930;48.592;8.868;2023-06-14T04:46:04;96371.34;;;11.74;100.00
6829;BME280;17930;48.592;8.868;2023-06-14T04:48:36;96376.22;;;11.62;100.00
6829;BME280;17930;48.592;8.868;2023-06-14T04:51:08;96380.38;;;11.50;100.00
6829;BME280;17930;48.592;8.868;2023-06-14T04:53:35;96378.44;;;11.55;100.00
6829;BME280;17930;48.592;8.868;2023-06-14T04:56:02;96380.75;;;11.57;100.00
6829;BME280;17930;48.592;8.868;2023-06-14T04:58:29;96386.78;;;11.71;100.00
6829;BME280;17930;48.592;8.868;2023-06-14T05:00:57;96395.03;;;11.77;100.00
6829;BME280;17930;48.592;8.868;2023-06-14T05:03:24;96395.97;;;12.27;100.00
6829;BME280;17930;48.592;8.868;2023-06-14T05:05:52;96391.25;;;12.42;100.00
6829;BME280;17930;48.592;8.868;2023-06-14T05:08:20;96386.78;;;12.42;100.00
6829;BME280;17930;48.592;8.868;2023-06-14T05:10:48;96391.91;;;12.34;100.00
6829;BME280;17930;48.592;8.868;2023-06-14T05:13:15;96386.00;;;12.28;100.00
6829;BME280;17930;48.592;8.868;2023-06-14T05:15:42;96385.91;;;12.33;100.00
6829;BME280;17930;48.592;8.868;2023-06-14T05:18:10;96384.19;;;12.29;100.00
6829;BME280;17930;48.592;8.868;2023-06-14T05:20:36;96391.03;;;12.38;100.00
6829;BME280;17930;48.592;8.868;2023-06-14T05:23:03;96379.31;;;12.49;100.00
6829;BME280;17930;48.592;8.868;2023-06-14T05:25:31;96374.63;;;12.73;100.00
6829;BME280;17930;48.592;8.868;2023-06-14T05:27:58;96384.47;;;13.03;100.00
6829;BME280;17930;48.592;8.868;2023-06-14T05:30:24;96389.03;;;13.32;100.00
6829;BME280;17930;48.592;8.868;2023-06-14T05:32:51;96393.44;;;13.45;100.00
6829;BME280;17930;48.592;8.868;2023-06-14T05:35:20;96385.25;;;13.60;100.00
6829;BME280;17930;48.592;8.868;2023-06-14T05:37:48;96390.22;;;13.70;100.00
6829;BME280;17930;48.592;8.868;2023-06-14T05:40:15;96387.81;;;13.82;100.00
6829;BME280;17930;48.592;8.868;2023-06-14T05:42:44;96390.44;;;13.82;100.00
6829;BME280;17930;48.592;8.868;2023-06-14T05:45:11;96395.34;;;13.75;100.00
6829;BME280;17930;48.592;8.868;2023-06-14T05:47:38;96398.19;;;13.65;100.00
6829;BME280;17930;48.592;8.868;2023-06-14T05:50:05;96404.75;;;13.76;100.00
6829;BME280;17930;48.592;8.868;2023-06-14T05:52:32;96397.19;;;14.05;100.00
6829;BME280;17930;48.592;8.868;2023-06-14T05:54:59;96399.13;;;14.13;100.00
6829;BME280;17930;48.592;8.868;2023-06-14T05:57:26;96400.06;;;14.17;100.00
6829;BME280;17930;48.592;8.868;2023-06-14T05:59:54;96399.19;;;14.30;100.00
6829;BME280;17930;48.592;8.868;2023-06-14T06:02:21;96401.69;;;14.34;100.00
6829;BME280;17930;48.592;8.868;2023-06-14T06:04:47;96400.19;;;14.50;100.00
6829;BME280;17930;48.592;8.868;2023-06-14T06:07:14;96401.00;;;14.59;100.00
6829;BME280;17930;48.592;8.868;2023-06-14T06:09:42;96405.03;;;14.74;100.00
6829;BME280;17930;48.592;8.868;2023-06-14T06:12:08;96408.66;;;15.03;100.00
6829;BME280;17930;48.592;8.868;2023-06-14T06:14:35;96403.13;;;15.13;100.00
6829;BME280;17930;48.592;8.868;2023-06-14T06:17:04;96394.16;;;15.31;100.00
6829;BME280;17930;48.592;8.868;2023-06-14T06:19:31;96398.78;;;15.67;100.00
6829;BME280;17930;48.592;8.868;2023-06-14T06:22:04;96395.50;;;15.87;100.00
6829;BME280;17930;48.592;8.868;2023-06-14T06:24:32;96400.22;;;16.19;100.00
6829;BME280;17930;48.592;8.868;2023-06-14T06:26:58;96393.69;;;16.33;100.00
6829;BME280;17930;48.592;8.868;2023-06-14T06:29:25;96392.22;;;16.44;100.00
6829;BME280;17930;48.592;8.868;2023-06-14T06:31:52;96393.38;;;16.63;100.00
6829;BME280;17930;48.592;8.868;2023-06-14T06:34:20;96404.69;;;16.92;100.00
6829;BME280;17930;48.592;8.868;2023-06-14T06:36:47;96398.03;;;16.95;100.00
6829;BME280;17930;48.592;8.868;2023-06-14T06:39:13;96397.88;;;17.12;100.00
6829;BME280;17930;48.592;8.868;2023-06-14T06:41:40;96397.78;;;17.29;100.00
6829;BME280;17930;48.592;8.868;2023-06-14T06:44:07;96396.78;;;17.42;100.00
6829;BME280;17930;48.592;8.868;2023-06-14T06:46:35;96404.34;;;17.63;100.00
6829;BME280;17930;48.592;8.868;2023-06-14T06:49:05;96409.31;;;17.77;100.00
6829;BME280;17930;48.592;8.868;2023-06-14T06:51:34;96409.88;;;18.02;100.00
6829;BME280;17930;48.592;8.868;2023-06-14T06:54:02;96403.22;;;18.29;100.00
6829;BME280;17930;48.592;8.868;2023-06-14T06:56:28;96408.09;;;18.50;100.00
6829;BME280;17930;48.592;8.868;2023-06-14T06:58:56;96409.84;;;18.58;100.00
6829;BME280;17930;48.592;8.868;2023-06-14T07:01:23;96405.22;;;18.79;100.00
6829;BME280;17930;48.592;8.868;2023-06-14T07:03:51;96406.22;;;18.87;98.97
6829;BME280;17930;48.592;8.868;2023-06-14T07:06:18;96414.16;;;18.99;100.00
6829;BME280;17930;48.592;8.868;2023-06-14T07:08:46;96409.63;;;19.23;98.51
6829;BME280;17930;48.592;8.868;2023-06-14T07:11:15;96415.25;;;19.21;96.89
6829;BME280;17930;48.592;8.868;2023-06-14T07:13:41;96409.25;;;19.36;95.68
6829;BME280;17930;48.592;8.868;2023-06-14T07:16:08;96416.28;;;19.71;96.79
6829;BME280;17930;48.592;8.868;2023-06-14T07:18:34;96418.69;;;19.88;95.80
6829;BME280;17930;48.592;8.868;2023-06-14T07:21:02;96422.19;;;19.92;94.31
6829;BME280;17930;48.592;8.868;2023-06-14T07:23:29;96416.00;;;20.15;93.44
6829;BME280;17930;48.592;8.868;2023-06-14T07:25:57;96412.44;;;20.39;91.26
6829;BME280;17930;48.592;8.868;2023-06-14T07:28:24;96416.97;;;20.84;88.95
6829;BME280;17930;48.592;8.868;2023-06-14T07:30:51;96410.59;;;21.38;84.55
6829;BME280;17930;48.592;8.868;2023-06-14T07:33:17;96412.78;;;21.89;83.03
6829;BME280;17930;48.592;8.868;2023-06-14T07:35:44;96414.25;;;22.47;79.43
6829;BME280;17930;48.592;8.868;2023-06-14T07:38:11;96413.81;;;23.15;78.95
6829;BME280;17930;48.592;8.868;2023-06-14T07:40:38;96413.38;;;23.65;74.27
6829;BME280;17930;48.592;8.868;2023-06-14T07:43:06;96408.16;;;24.04;72.42
6829;BME280;17930;48.592;8.868;2023-06-14T07:45:32;96413.47;;;24.83;70.94
6829;BME280;17930;48.592;8.868;2023-06-14T07:47:59;96404.00;;;25.50;67.72
6829;BME280;17930;48.592;8.868;2023-06-14T07:50:26;96400.25;;;25.65;66.77
6829;BME280;17930;48.592;8.868;2023-06-14T07:52:52;96397.84;;;26.41;64.16
6829;BME280;17930;48.592;8.868;2023-06-14T07:55:19;96395.19;;;27.00;62.31
6829;BME280;17930;48.592;8.868;2023-06-14T07:57:46;96401.28;;;26.45;61.48
6829;BME280;17930;48.592;8.868;2023-06-14T08:00:15;96400.50;;;26.34;60.59
6829;BME280;17930;48.592;8.868;2023-06-14T08:02:43;96399.69;;;26.20;60.75
6829;BME280;17930;48.592;8.868;2023-06-14T08:05:11;96400.13;;;26.39;61.66
6829;BME280;17930;48.592;8.868;2023-06-14T08:07:38;96408.09;;;27.64;59.27
6829;BME280;17930;48.592;8.868;2023-06-14T08:10:06;96396.47;;;27.91;57.52
6829;BME280;17930;48.592;8.868;2023-06-14T08:12:32;96403.47;;;27.68;56.76
6829;BME280;17930;48.592;8.868;2023-06-14T08:15:00;96398.41;;;27.87;56.83
6829;BME280;17930;48.592;8.868;2023-06-14T08:17:28;96406.03;;;27.95;56.76
6829;BME280;17930;48.592;8.868;2023-06-14T08:19:55;96404.56;;;28.55;57.75
6829;BME280;17930;48.592;8.868;2023-06-14T08:22:22;96398.84;;;28.97;53.95
6829;BME280;17930;48.592;8.868;2023-06-14T08:24:50;96405.91;;;29.24;53.63
6829;BME280;17930;48.592;8.868;2023-06-14T08:27:16;96404.47;;;29.53;52.08
6829;BME280;17930;48.592;8.868;2023-06-14T08:29:43;96404.88;;;29.51;52.35
6829;BME280;17930;48.592;8.868;2023-06-14T08:32:10;96410.25;;;29.85;49.40
6829;BME280;17930;48.592;8.868;2023-06-14T08:34:37;96409.63;;;29.74;49.19
6829;BME280;17930;48.592;8.868;2023-06-14T08:37:04;96403.00;;;29.45;50.32
6829;BME280;17930;48.592;8.868;2023-06-14T08:39:31;96406.88;;;30.10;50.33
6829;BME280;17930;48.592;8.868;2023-06-14T08:42:01;96408.75;;;29.47;47.40
6829;BME280;17930;48.592;8.868;2023-06-14T08:44:28;96414.09;;;29.10;46.59
6829;BME280;17930;48.592;8.868;2023-06-14T08:46:55;96411.94;;;30.31;47.19
6829;BME280;17930;48.592;8.868;2023-06-14T08:49:22;96416.44;;;30.41;45.77
6829;BME280;17930;48.592;8.868;2023-06-14T08:51:56;96409.25;;;30.31;45.10
6829;BME280;17930;48.592;8.868;2023-06-14T08:54:25;96409.66;;;30.30;46.75
6829;BME280;17930;48.592;8.868;2023-06-14T08:56:53;96412.63;;;29.79;44.73
6829;BME280;17930;48.592;8.868;2023-06-14T08:59:23;96421.31;;;29.20;45.41
6829;BME280;17930;48.592;8.868;2023-06-14T09:01:51;96422.94;;;29.51;45.95
6829;BME280;17930;48.592;8.868;2023-06-14T09:04:20;96419.66;;;29.33;46.81
6829;BME280;17930;48.592;8.868;2023-06-14T09:06:47;96422.34;;;30.03;45.74
6829;BME280;17930;48.592;8.868;2023-06-14T09:09:20;96411.25;;;31.25;45.81
6829;BME280;17930;48.592;8.868;2023-06-14T09:11:49;96419.84;;;31.20;43.42
6829;BME280;17930;48.592;8.868;2023-06-14T09:14:17;96419.75;;;30.78;43.31
6829;BME280;17930;48.592;8.868;2023-06-14T09:16:44;96413.47;;;30.32;44.95
6829;BME280;17930;48.592;8.868;2023-06-14T09:19:13;96408.44;;;30.87;45.01
6829;BME280;17930;48.592;8.868;2023-06-14T09:21:40;96411.78;;;31.40;44.28
6829;BME280;17930;48.592;8.868;2023-06-14T09:24:13;96413.19;;;31.86;44.09
6829;BME280;17930;48.592;8.868;2023-06-14T09:26:41;96418.06;;;31.33;44.10
6829;BME280;17930;48.592;8.868;2023-06-14T09:29:09;96423.34;;;31.40;44.37
6829;BME280;17930;48.592;8.868;2023-06-14T09:31:35;96415.50;;;31.04;44.42
6829;BME280;17930;48.592;8.868;2023-06-14T09:34:02;96419.44;;;31.45;43.77
6829;BME280;17930;48.592;8.868;2023-06-14T09:36:31;96420.00;;;31.10;44.19
6829;BME280;17930;48.592;8.868;2023-06-14T09:38:59;96426.13;;;31.75;43.42
6829;BME280;17930;48.592;8.868;2023-06-14T09:41:33;96420.13;;;30.54;43.79
6829;BME280;17930;48.592;8.868;2023-06-14T09:44:03;96428.03;;;31.78;43.54
6829;BME280;17930;48.592;8.868;2023-06-14T09:46:30;96426.06;;;31.59;42.54
6829;BME280;17930;48.592;8.868;2023-06-14T09:48:58;96437.84;;;31.04;43.25
6829;BME280;17930;48.592;8.868;2023-06-14T09:51:25;96429.56;;;30.92;43.24
6829;BME280;17930;48.592;8.868;2023-06-14T09:53:53;96426.09;;;30.65;43.28
6829;BME280;17930;48.592;8.868;2023-06-14T09:56:25;96422.91;;;30.73;42.91
6829;BME280;17930;48.592;8.868;2023-06-14T09:58:55;96432.06;;;29.17;44.54
6829;BME280;17930;48.592;8.868;2023-06-14T10:01:24;96435.84;;;29.66;44.91
6829;BME280;17930;48.592;8.868;2023-06-14T10:03:55;96428.22;;;31.49;42.74
6829;BME280;17930;48.592;8.868;2023-06-14T10:06:23;96423.72;;;31.19;42.19
6829;BME280;17930;48.592;8.868;2023-06-14T10:08:52;96423.84;;;31.74;41.89
6829;BME280;17930;48.592;8.868;2023-06-14T10:11:22;96422.16;;;32.38;42.14
6829;BME280;17930;48.592;8.868;2023-06-14T10:13:49;96423.19;;;32.09;41.29
6829;BME280;17930;48.592;8.868;2023-06-14T10:16:19;96422.53;;;30.19;43.12
6829;BME280;17930;48.592;8.868;2023-06-14T10:18:51;96424.31;;;28.28;46.13
6829;BME280;17930;48.592;8.868;2023-06-14T10:21:25;96432.56;;;27.76;46.26
6829;BME280;17930;48.592;8.868;2023-06-14T10:23:56;96428.06;;;28.41;45.34
6829;BME280;17930;48.592;8.868;2023-06-14T10:26:25;96428.63;;;29.20;45.01
6829;BME280;17930;48.592;8.868;2023-06-14T10:29:00;96433.56;;;31.29;42.79
6829;BME280;17930;48.592;8.868;2023-06-14T10:31:41;96427.63;;;32.34;42.01
6829;BME280;17930;48.592;8.868;2023-06-14T10:34:10;96427.72;;;33.14;41.11
6829;BME280;17930;48.592;8.868;2023-06-14T10:36:38;96431.25;;;33.42;39.54
6829;BME280;17930;48.592;8.868;2023-06-14T10:39:07;96426.59;;;34.77;39.67
6829;BME280;17930;48.592;8.868;2023-06-14T10:41:36;96429.47;;;33.80;37.49
6829;BME280;17930;48.592;8.868;2023-06-14T10:44:31;96425.13;;;32.94;39.42
6829;BME280;17930;48.592;8.868;2023-06-14T10:46:59;96417.28;;;30.91;41.94
6829;BME280;17930;48.592;8.868;2023-06-14T10:49:42;96424.53;;;29.45;42.82
6829;BME280;17930;48.592;8.868;2023-06-14T10:52:10;96429.78;;;28.72;43.40
6829;BME280;17930;48.592;8.868;2023-06-14T10:55:00;96423.38;;;30.12;42.66
6829;BME280;17930;48.592;8.868;2023-06-14T10:57:27;96424.00;;;31.67;42.22
6829;BME280;17930;48.592;8.868;2023-06-14T10:59:54;96413.47;;;33.13;40.06
6829;BME280;17930;48.592;8.868;2023-06-14T11:02:42;96423.19;;;33.83;38.49
6829;BME280;17930;48.592;8.868;2023-06-14T11:05:15;96413.59;;;32.59;39.53
6829;BME280;17930;48.592;8.868;2023-06-14T11:07:48;96423.84;;;30.90;39.21
6829;BME280;17930;48.592;8.868;2023-06-14T11:10:26;96423.31;;;32.56;40.59
6829;BME280;17930;48.592;8.868;2023-06-14T11:13:00;96429.38;;;33.83;37.28
6829;BME280;17930;48.592;8.868;2023-06-14T11:15:29;96419.59;;;33.73;40.28
6829;BME280;17930;48.592;8.868;2023-06-14T11:17:57;96430.31;;;34.58;35.95
6829;BME280;17930;48.592;8.868;2023-06-14T11:20:27;96424.97;;;34.55;36.62
6829;BME280;17930;48.592;8.868;2023-06-14T11:22:54;96425.09;;;34.51;35.73
6829;BME280;17930;48.592;8.868;2023-06-14T11:25:20;96422.69;;;33.60;36.84
6829;BME280;17930;48.592;8.868;2023-06-14T11:27:49;96425.78;;;34.02;35.55
6829;BME280;17930;48.592;8.868;2023-06-14T11:30:17;96431.06;;;34.06;35.11
6829;BME280;17930;48.592;8.868;2023-06-14T11:32:46;96428.06;;;32.84;35.63
6829;BME280;17930;48.592;8.868;2023-06-14T11:35:12;96417.25;;;31.36;36.35
6829;BME280;17930;48.592;8.868;2023-06-14T11:37:41;96412.09;;;33.65;36.43
6829;BME280;17930;48.592;8.868;2023-06-14T11:40:08;96415.78;;;33.71;34.63
6829;BME280;17930;48.592;8.868;2023-06-14T11:42:37;96404.63;;;34.10;35.45
6829;BME280;17930;48.592;8.868;2023-06-14T11:45:07;96406.53;;;34.62;36.01
6829;BME280;17930;48.592;8.868;2023-06-14T11:47:35;96410.00;;;34.25;35.74
6829;BME280;17930;48.592;8.868;2023-06-14T11:50:03;96408.41;;;34.00;35.39
6829;BME280;17930;48.592;8.868;2023-06-14T11:52:30;96403.59;;;31.66;37.54
6829;BME280;17930;48.592;8.868;2023-06-14T11:54:58;96408.28;;;31.20;37.87
6829;BME280;17930;48.592;8.868;2023-06-14T11:57:25;96407.75;;;32.60;36.01
6829;BME280;17930;48.592;8.868;2023-06-14T11:59:54;96420.16;;;33.81;34.50
6829;BME280;17930;48.592;8.868;2023-06-14T12:02:22;96411.34;;;33.05;35.44
6829;BME280;17930;48.592;8.868;2023-06-14T12:04:54;96401.81;;;35.25;34.74
6829;BME280;17930;48.592;8.868;2023-06-14T12:07:22;96405.25;;;36.83;33.55
6829;BME280;17930;48.592;8.868;2023-06-14T12:10:07;96408.59;;;36.27;33.16
6829;BME280;17930;48.592;8.868;2023-06-14T12:12:36;96402.38;;;35.75;34.12
6829;BME280;17930;48.592;8.868;2023-06-14T12:15:04;96392.13;;;34.65;34.60
6829;BME280;17930;48.592;8.868;2023-06-14T12:17:32;96399.44;;;33.46;35.16
6829;BME280;17930;48.592;8.868;2023-06-14T12:20:05;96399.00;;;33.64;35.86
6829;BME280;17930;48.592;8.868;2023-06-14T12:22:36;96393.56;;;35.16;35.01
6829;BME280;17930;48.592;8.868;2023-06-14T12:25:04;96393.41;;;34.98;34.73
6829;BME280;17930;48.592;8.868;2023-06-14T12:27:31;96396.56;;;34.59;34.51
6829;BME280;17930;48.592;8.868;2023-06-14T12:29:59;96379.00;;;35.77;35.16
6829;BME280;17930;48.592;8.868;2023-06-14T12:32:26;96400.56;;;33.89;34.26
6829;BME280;17930;48.592;8.868;2023-06-14T12:34:53;96387.34;;;35.61;34.26
6829;BME280;17930;48.592;8.868;2023-06-14T12:37:19;96389.72;;;35.26;33.95
6829;BME280;17930;48.592;8.868;2023-06-14T12:39:46;96386.97;;;35.93;34.19
6829;BME280;17930;48.592;8.868;2023-06-14T12:42:14;96382.97;;;35.64;35.13
6829;BME280;17930;48.592;8.868;2023-06-14T12:44:40;96391.34;;;35.57;33.91
6829;BME280;17930;48.592;8.868;2023-06-14T12:47:08;96383.84;;;35.82;34.21
6829;BME280;17930;48.592;8.868;2023-06-14T12:49:34;96389.41;;;34.53;33.99
6829;BME280;17930;48.592;8.868;2023-06-14T12:52:01;96375.13;;;35.11;35.00
6829;BME280;17930;48.592;8.868;2023-06-14T12:54:28;96389.88;;;35.77;34.13
6829;BME280;17930;48.592;8.868;2023-06-14T12:56:55;96390.38;;;34.71;34.76
6829;BME280;17930;48.592;8.868;2023-06-14T12:59:23;96385.38;;;32.60;37.26
6829;BME280;17930;48.592;8.868;2023-06-14T13:01:49;96382.75;;;31.24;38.59
6829;BME280;17930;48.592;8.868;2023-06-14T13:04:18;96401.22;;;32.42;36.55
6829;BME280;17930;48.592;8.868;2023-06-14T13:06:45;96389.81;;;30.73;38.24
6829;BME280;17930;48.592;8.868;2023-06-14T13:09:13;96393.41;;;31.73;37.72